Milford, Indiana
Current Conditions -  °F | °C
As of 9:53 AM on Friday 19 Dec 2014 (Local Time) from KGSH Reporting Station
Haze Haze  
Wind Chill: 29°   Ceiling: Unl
Heat Index: 29°   Visibility: 6mi
Dew Point: 25°   Wind: 3mph
Humidity: 85%   Direction: 320°NW
Pressure: 30.26"   Gusts: NA
Location:  41.41°N, 85.85°W
Report Text: KGSH 191453Z AUTO 32003KT 6SM BR CLR M02/M04 A3026 RMK AO2 SLP258 T10171039 51006
Loading
Personal Weather Stations






























Interactive Weather Map New forecast layout! Learn more

10-Day Weather Forecast

Advertisements
Track Severe Weather on mobile